Time;durP1;ratioP1;P1;durP2;ratioP2;P2;SDS_P1;SDS_P2;PMS_P1;PMS_P2;Temp;Humidity;BMP_temperature;BMP_pressure;BME280_temperature;BME280_humidity;BME280_pressure;Samples;Min_cycle;Max_cycle;Signal;HPM_P1;HPM_P2
2024/03/14 00:01:06;;;;;;;40.10;30.60;;;;;;;4.86;93.00;100290.39;103182;1255;111954;-70
2024/03/14 00:03:32;;;;;;;38.90;30.60;;;;;;;4.86;93.05;100291.08;103490;1260;139305;-68
2024/03/14 00:05:57;;;;;;;40.80;30.60;;;;;;;4.83;93.07;100288.31;103280;1253;97751;-70
2024/03/14 00:08:21;;;;;;;38.10;30.20;;;;;;;4.83;92.99;100289.17;103077;1256;139352;-71
2024/03/14 00:10:47;;;;;;;38.60;31.10;;;;;;;4.82;93.10;100288.16;103198;1260;97682;-69
2024/03/14 00:13:13;;;;;;;40.00;31.50;;;;;;;4.82;93.19;100290.05;103321;1253;111864;-69
2024/03/14 00:15:37;;;;;;;43.30;30.80;;;;;;;4.82;93.13;100288.84;103080;1260;139032;-69
2024/03/14 00:18:04;;;;;;;40.40;31.00;;;;;;;4.83;93.10;100289.53;103269;1253;97699;-69
2024/03/14 00:20:29;;;;;;;43.80;32.10;;;;;;;4.85;93.29;100289.36;103153;1253;138642;-69
2024/03/14 00:22:53;;;;;;;41.90;31.20;;;;;;;4.87;93.21;100282.80;103235;1260;96448;-69
2024/03/14 00:25:17;;;;;;;40.80;31.00;;;;;;;4.90;93.37;100281.73;103294;1254;111418;-69
2024/03/14 00:27:43;;;;;;;39.40;29.30;;;;;;;4.91;93.21;100278.80;103045;1256;138683;-69
2024/03/14 00:30:11;;;;;;;38.60;30.50;;;;;;;4.94;93.06;100282.05;103303;1253;97996;-70
2024/03/14 00:32:35;;;;;;;37.50;29.10;;;;;;;4.96;92.97;100281.67;103107;1260;138484;-69
2024/03/14 00:35:02;;;;;;;41.00;31.70;;;;;;;4.98;92.91;100281.83;103173;1254;100184;-69
2024/03/14 00:37:27;;;;;;;39.00;29.80;;;;;;;5.00;93.00;100277.49;103275;1254;111480;-69
2024/03/14 00:39:52;;;;;;;42.10;31.00;;;;;;;5.01;93.05;100279.55;103102;1253;138927;-69
2024/03/14 00:42:16;;;;;;;39.80;31.10;;;;;;;5.01;92.82;100275.25;103170;1253;97904;-69
2024/03/14 00:44:41;;;;;;;40.20;31.10;;;;;;;5.01;92.82;100275.95;103116;1256;139526;-68
2024/03/14 00:47:07;;;;;;;38.30;30.50;;;;;;;4.99;92.60;100278.02;103048;1255;97743;-67
2024/03/14 00:49:31;;;;;;;42.10;30.70;;;;;;;4.98;92.65;100280.10;103090;1253;115057;-68
2024/03/14 00:51:57;;;;;;;42.10;30.50;;;;;;;4.95;92.72;100278.75;103126;1253;139022;-68
2024/03/14 00:54:22;;;;;;;44.30;31.90;;;;;;;4.92;92.88;100276.89;103299;1257;97840;-68
2024/03/14 00:56:48;;;;;;;45.30;31.80;;;;;;;4.91;92.91;100272.94;103133;1253;139541;-67
2024/03/14 00:59:12;;;;;;;42.30;33.10;;;;;;;4.89;93.08;100272.96;103174;1260;97895;-68
2024/03/14 01:01:37;;;;;;;40.90;31.20;;;;;;;4.86;93.09;100274.18;103276;1254;110833;-68
2024/03/14 01:04:03;;;;;;;42.70;31.60;;;;;;;4.82;93.11;100272.99;102998;1260;108146;-68
2024/03/14 01:06:28;;;;;;;43.80;33.00;;;;;;;4.80;93.41;100274.39;103102;1254;97695;-68
2024/03/14 01:08:53;;;;;;;41.60;31.60;;;;;;;4.80;93.44;100276.46;103029;1260;138505;-68
2024/03/14 01:11:18;;;;;;;43.80;33.90;;;;;;;4.80;93.54;100280.94;103180;1255;97887;-68
2024/03/14 01:13:43;;;;;;;44.00;33.70;;;;;;;4.79;93.58;100275.79;103080;1256;138607;-70
2024/03/14 01:16:07;;;;;;;41.60;33.00;;;;;;;4.79;93.63;100275.95;102968;1258;107771;-68
2024/03/14 01:18:31;;;;;;;44.10;33.20;;;;;;;4.78;93.70;100271.31;103107;1256;98358;-67
2024/03/14 01:20:55;;;;;;;43.50;32.70;;;;;;;4.78;93.65;100269.94;103044;1254;139024;-67
2024/03/14 01:23:20;;;;;;;43.80;33.40;;;;;;;4.76;93.71;100265.14;103029;1255;97858;-68
2024/03/14 01:25:44;;;;;;;44.50;33.60;;;;;;;4.73;93.75;100260.34;103076;1254;141656;-68
2024/03/14 01:28:09;;;;;;;41.50;31.90;;;;;;;4.71;93.64;100262.42;103133;1260;108143;-68
2024/03/14 01:30:33;;;;;;;41.60;32.50;;;;;;;4.67;93.80;100260.39;103079;1259;98533;-68
2024/03/14 01:32:58;;;;;;;47.50;33.70;;;;;;;4.66;93.76;100261.25;102966;1254;139221;-68
2024/03/14 01:35:24;;;;;;;45.20;32.90;;;;;;;4.64;93.81;100260.91;103164;1254;97804;-70
2024/03/14 01:37:48;;;;;;;44.10;33.00;;;;;;;4.62;93.83;100261.80;103057;1254;139055;-68
2024/03/14 01:40:14;;;;;;;45.50;32.90;;;;;;;4.60;94.23;100259.91;103137;1260;107546;-67
2024/03/14 01:42:38;;;;;;;43.70;33.10;;;;;;;4.59;94.16;100261.48;103178;1254;97863;-67
2024/03/14 01:45:04;;;;;;;44.00;33.70;;;;;;;4.58;94.14;100257.19;102968;1260;138637;-67
2024/03/14 01:47:29;;;;;;;45.80;33.40;;;;;;;4.57;94.29;100257.71;103174;1256;97814;-69
2024/03/14 01:49:53;;;;;;;43.50;33.00;;;;;;;4.57;94.39;100256.50;102902;1254;138595;-69
2024/03/14 01:52:18;;;;;;;44.20;32.40;;;;;;;4.57;94.51;100259.27;103083;1255;109041;-69
2024/03/14 01:54:42;;;;;;;47.10;34.70;;;;;;;4.56;94.66;100260.48;103062;1255;97993;-69
2024/03/14 01:57:06;;;;;;;45.90;34.70;;;;;;;4.55;94.61;100260.83;103019;1257;138574;-69
2024/03/14 01:59:31;;;;;;;45.70;34.90;;;;;;;4.55;94.57;100257.55;103093;1256;97756;-69
2024/03/14 02:01:55;;;;;;;46.60;35.00;;;;;;;4.55;94.69;100254.45;103038;1255;139058;-69
2024/03/14 02:04:20;;;;;;;46.10;35.00;;;;;;;4.55;94.73;100256.52;103092;1254;107091;-69
2024/03/14 02:06:44;;;;;;;44.30;33.30;;;;;;;4.55;94.82;100255.67;103080;1254;97726;-67
2024/03/14 02:09:10;;;;;;;43.80;33.40;;;;;;;4.55;94.60;100257.90;103054;1255;139116;-68
2024/03/14 02:11:34;;;;;;;48.50;35.30;;;;;;;4.55;94.72;100259.45;103090;1256;97724;-67
2024/03/14 02:13:59;;;;;;;44.90;33.50;;;;;;;4.56;94.67;100255.31;103015;1256;138639;-67
2024/03/14 02:16:24;;;;;;;46.20;32.80;;;;;;;4.55;94.83;100252.91;103115;1255;107541;-67
2024/03/14 02:18:48;;;;;;;46.70;33.30;;;;;;;4.56;94.93;100256.17;103207;1260;97728;-67
2024/03/14 02:21:13;;;;;;;46.10;33.70;;;;;;;4.55;94.73;100251.52;103561;1256;138906;-68
2024/03/14 02:23:37;;;;;;;45.40;33.80;;;;;;;4.54;94.82;100252.57;103222;1256;98053;-67
2024/03/14 02:26:02;;;;;;;46.40;33.80;;;;;;;4.53;94.74;100254.64;103157;1256;138541;-68
2024/03/14 02:28:27;;;;;;;47.20;35.00;;;;;;;4.51;94.73;100257.42;103190;1256;108565;-67
2024/03/14 02:30:51;;;;;;;50.30;35.50;;;;;;;4.48;94.64;100256.23;103213;1256;98339;-68
2024/03/14 02:33:16;;;;;;;51.00;36.90;;;;;;;4.46;94.82;100257.42;103101;1256;139249;-68
2024/03/14 02:35:40;;;;;;;50.10;36.60;;;;;;;4.43;94.89;100255.91;103620;1260;97806;-68
2024/03/14 02:38:04;;;;;;;49.70;37.30;;;;;;;4.41;94.71;100254.03;103099;1256;138838;-68
2024/03/14 02:40:29;;;;;;;49.40;37.00;;;;;;;4.40;94.84;100251.64;103156;1257;108464;-68
2024/03/14 02:42:53;;;;;;;51.50;37.70;;;;;;;4.36;94.79;100253.05;103223;1256;98322;-68
2024/03/14 02:45:20;;;;;;;53.70;38.30;;;;;;;4.36;94.82;100254.95;103092;1260;138847;-69
2024/03/14 02:47:44;;;;;;;58.20;40.10;;;;;;;4.36;94.88;100254.09;103586;1256;97877;-68
2024/03/14 02:50:09;;;;;;;55.70;39.50;;;;;;;4.37;94.93;100249.08;103020;1256;139387;-68
2024/03/14 02:52:34;;;;;;;57.30;40.00;;;;;;;4.38;95.03;100251.30;103086;1258;108238;-68
2024/03/14 02:54:58;;;;;;;54.60;41.50;;;;;;;4.39;94.86;100251.13;103128;1256;98326;-68
2024/03/14 02:57:22;;;;;;;63.30;41.50;;;;;;;4.39;94.83;100249.23;103023;1261;139006;-68
2024/03/14 02:59:47;;;;;;;60.30;44.00;;;;;;;4.38;94.86;100248.38;103202;1256;97862;-68
2024/03/14 03:02:13;;;;;;;59.70;43.50;;;;;;;4.38;94.89;100248.73;103037;1254;138898;-68
2024/03/14 03:04:38;;;;;;;63.90;45.20;;;;;;;4.38;94.93;100249.07;103088;1256;108306;-68
2024/03/14 03:07:05;;;;;;;61.00;44.50;;;;;;;4.38;94.89;100251.66;103118;1254;97804;-68
2024/03/14 03:09:30;;;;;;;69.70;46.50;;;;;;;4.34;94.96;100248.41;103029;1256;138628;-68
2024/03/14 03:11:54;;;;;;;69.50;46.10;;;;;;;4.35;95.00;100246.52;103140;1262;97813;-68
2024/03/14 03:14:19;;;;;;;71.10;48.20;;;;;;;4.35;95.33;100250.48;103062;1256;138683;-68
2024/03/14 03:16:44;;;;;;;67.50;48.20;;;;;;;4.36;95.16;100250.98;103219;1257;108056;-68
2024/03/14 03:19:09;;;;;;;71.60;51.20;;;;;;;4.36;95.20;100251.33;103218;1255;97685;-68
2024/03/14 03:21:34;;;;;;;73.60;48.90;;;;;;;4.36;95.36;100245.48;103086;1254;140291;-67
2024/03/14 03:23:58;;;;;;;69.90;49.30;;;;;;;4.37;95.56;100244.77;103207;1255;97817;-67
2024/03/14 03:26:25;;;;;;;76.10;53.60;;;;;;;4.37;95.52;100244.95;103297;1255;138848;-67
2024/03/14 03:28:50;;;;;;;73.80;51.00;;;;;;;4.38;95.70;100248.04;103136;1260;107570;-68
2024/03/14 03:31:15;;;;;;;75.90;54.50;;;;;;;4.38;95.54;100249.41;103259;1255;97807;-67
2024/03/14 03:33:39;;;;;;;77.10;52.70;;;;;;;4.37;95.67;100249.59;103074;1261;138526;-68
2024/03/14 03:36:05;;;;;;;76.20;53.00;;;;;;;4.38;95.58;100247.70;101727;1260;1003752;-67
2024/03/14 03:38:29;;;;;;;;;;;;;;;4.37;95.76;100248.90;103394;1254;138961;-68
2024/03/14 03:40:54;;;;;;;73.50;50.60;;;;;;;4.35;95.70;100248.75;103252;1259;107356;-68
2024/03/14 03:43:19;;;;;;;75.40;51.40;;;;;;;4.34;95.99;100242.73;103229;1255;97821;-68
2024/03/14 03:45:44;;;;;;;74.30;51.90;;;;;;;4.35;95.88;100240.50;102944;1260;140805;-68
2024/03/14 03:48:09;;;;;;;77.20;52.40;;;;;;;4.35;96.06;100237.91;103184;1256;97822;-69
2024/03/14 03:50:33;;;;;;;73.70;52.20;;;;;;;4.35;95.87;100239.46;102994;1261;138456;-68
2024/03/14 03:52:57;;;;;;;73.80;52.10;;;;;;;4.35;95.99;100238.59;103187;1256;107337;-68
2024/03/14 03:55:22;;;;;;;71.00;51.20;;;;;;;4.37;96.14;100234.61;103165;1260;97761;-68
2024/03/14 03:57:46;;;;;;;73.20;52.20;;;;;;;4.38;95.86;100235.30;103113;1256;139444;-67
2024/03/14 04:02:50;;;;;;;74.90;49.90;;;;;;;4.34;96.00;100237.91;103172;1255;138431;-68
2024/03/14 04:05:14;;;;;;;76.50;50.20;;;;;;;4.33;96.17;100240.85;103218;1256;108950;-68
2024/03/14 04:07:39;;;;;;;75.60;51.20;;;;;;;4.33;96.21;100242.06;103221;1254;98262;-68
2024/03/14 04:10:06;;;;;;;72.80;51.70;;;;;;;4.32;96.00;100243.44;103176;1261;109557;-67
2024/03/14 04:12:30;;;;;;;73.80;50.00;;;;;;;4.32;96.15;100249.13;103643;1254;97789;-68
2024/03/14 04:14:56;;;;;;;66.80;48.40;;;;;;;4.32;96.14;100251.70;103150;1260;139905;-68
2024/03/14 04:17:20;;;;;;;73.90;49.70;;;;;;;4.31;96.34;100249.81;103185;1260;108950;-68
2024/03/14 04:19:46;;;;;;;70.50;49.60;;;;;;;4.32;96.27;100247.23;103104;1256;138842;-68
2024/03/14 04:22:10;;;;;;;71.80;51.50;;;;;;;4.33;96.33;100247.57;103148;1260;108240;-68
2024/03/14 04:24:35;;;;;;;76.60;51.50;;;;;;;4.32;96.47;100250.83;103204;1257;97706;-68
2024/03/14 04:26:59;;;;;;;70.80;51.70;;;;;;;4.31;96.32;100247.74;103266;1262;138630;-68
2024/03/14 04:29:26;;;;;;;73.30;50.80;;;;;;;4.31;96.50;100253.94;102508;1262;1004012;-68
2024/03/14 04:31:50;;;;;;;;;;;;;;;4.30;96.44;100248.94;103189;1254;139002;-68
2024/03/14 04:34:14;;;;;;;77.90;53.60;;;;;;;4.26;96.50;100252.23;103236;1259;107332;-68
2024/03/14 04:36:40;;;;;;;72.40;52.20;;;;;;;4.22;96.54;100253.46;103243;1255;97932;-68
2024/03/14 04:39:08;;;;;;;78.40;54.40;;;;;;;4.20;96.65;100254.86;103062;1260;138501;-68
2024/03/14 04:41:33;;;;;;;80.50;54.50;;;;;;;4.18;96.92;100261.94;103088;1261;108419;-68
2024/03/14 04:43:58;;;;;;;75.20;52.60;;;;;;;4.16;97.17;100261.79;103109;1255;139123;-68
2024/03/14 04:46:22;;;;;;;72.00;51.00;;;;;;;4.15;97.25;100262.13;103076;1256;108551;-68
2024/03/14 04:48:47;;;;;;;71.40;49.60;;;;;;;4.12;97.17;100262.14;103284;1254;97708;-69
2024/03/14 04:51:13;;;;;;;;;;;;;;;4.11;97.19;100265.91;102918;1256;138405;-67
2024/03/14 04:53:37;;;;;;;65.30;46.20;;;;;;;4.06;97.66;100269.05;103236;1254;107551;-68
2024/03/14 04:56:03;;;;;;;62.50;45.80;;;;;;;4.02;97.26;100274.08;103041;1256;138780;-68
2024/03/14 04:58:28;;;;;;;;;;;;;;;4.00;97.24;100278.90;103282;1256;108882;-67
2024/03/14 05:00:52;;;;;;;68.10;44.30;;;;;;;3.97;97.70;100279.78;103252;1259;97679;-67
2024/03/14 05:03:17;;;;;;;65.30;45.30;;;;;;;3.95;97.58;100275.14;103032;1256;139072;-69
2024/03/14 05:05:41;;;;;;;60.00;43.80;;;;;;;3.95;97.87;100276.52;103133;1260;108504;-67
2024/03/14 05:08:06;;;;;;;61.90;42.70;;;;;;;3.96;97.54;100277.89;103158;1256;139095;-68
2024/03/14 05:10:31;;;;;;;56.80;41.90;;;;;;;3.96;97.93;100279.10;103255;1262;107944;-68
2024/03/14 05:12:57;;;;;;;58.40;41.90;;;;;;;3.96;97.82;100280.30;103140;1257;98127;-68
2024/03/14 05:15:21;;;;;;;52.90;40.90;;;;;;;3.95;97.70;100282.35;103265;1256;138518;-68
2024/03/14 05:17:45;;;;;;;55.80;41.90;;;;;;;3.93;97.57;100280.97;103119;1256;106723;-68
2024/03/14 05:20:13;;;;;;;53.60;39.60;;;;;;;3.93;97.76;100282.01;103031;1260;138945;-69
2024/03/14 05:22:38;;;;;;;53.50;39.20;;;;;;;3.91;97.62;100283.05;103088;1255;106545;-68
2024/03/14 05:25:05;;;;;;;55.50;37.90;;;;;;;3.90;97.70;100282.37;103185;1255;97707;-69
2024/03/14 05:27:30;;;;;;;52.00;37.80;;;;;;;3.91;97.59;100281.16;103105;1257;138622;-68
2024/03/14 05:29:54;;;;;;;50.80;36.90;;;;;;;3.93;97.70;100281.84;103130;1261;107917;-68
2024/03/14 05:32:21;;;;;;;51.20;37.20;;;;;;;3.95;97.54;100280.48;103078;1257;138780;-69
2024/03/14 05:34:46;;;;;;;47.60;37.30;;;;;;;3.98;97.56;100279.43;103083;1254;109102;-69
2024/03/14 05:37:10;;;;;;;50.70;37.30;;;;;;;4.00;97.51;100280.62;103275;1255;97811;-69
2024/03/14 05:39:34;;;;;;;49.70;36.00;;;;;;;4.01;97.52;100281.65;103168;1254;138423;-69
2024/03/14 05:41:58;;;;;;;50.50;37.00;;;;;;;4.02;97.61;100282.50;103195;1256;107876;-69
2024/03/14 05:44:23;;;;;;;49.50;36.70;;;;;;;4.04;97.38;100284.90;102667;1261;1002388;-69
2024/03/14 05:46:47;;;;;;;49.30;36.30;;;;;;;4.04;97.30;100282.15;103233;1254;108680;-69
2024/03/14 05:49:12;;;;;;;49.30;35.80;;;;;;;4.04;97.62;100284.72;103203;1256;97697;-69
2024/03/14 05:51:36;;;;;;;49.60;37.00;;;;;;;4.05;97.41;100285.58;103062;1255;138747;-68
2024/03/14 05:54:00;;;;;;;49.70;38.10;;;;;;;4.05;97.44;100288.84;103136;1256;107588;-68
2024/03/14 05:56:24;;;;;;;48.70;35.60;;;;;;;4.08;97.62;100293.98;103130;1257;138887;-68
2024/03/14 05:58:49;;;;;;;46.80;36.20;;;;;;;4.08;97.56;100294.84;103132;1256;107822;-68
2024/03/14 06:01:13;;;;;;;48.40;36.10;;;;;;;4.09;97.42;100297.60;103149;1257;97799;-68
2024/03/14 06:03:40;;;;;;;49.70;37.50;;;;;;;4.12;97.47;100298.77;103726;1256;138377;-69
2024/03/14 06:06:06;;;;;;;48.80;36.60;;;;;;;4.12;97.47;100296.73;103038;1256;106573;-69
2024/03/14 06:08:31;;;;;;;45.50;35.40;;;;;;;4.18;97.49;100298.59;103327;1254;139047;-70
2024/03/14 06:10:55;;;;;;;55.30;38.00;;;;;;;4.24;97.28;100302.51;103021;1259;108430;-69
2024/03/14 06:13:20;;;;;;;53.60;37.80;;;;;;;4.31;97.14;100305.75;102971;1256;97957;-68
2024/03/14 06:15:44;;;;;;;49.90;36.00;;;;;;;4.37;97.03;100303.30;102921;1256;139004;-68
2024/03/14 06:18:08;;;;;;;48.40;36.60;;;;;;;4.42;97.09;100301.54;103093;1256;107611;-68
2024/03/14 06:20:34;;;;;;;46.80;35.00;;;;;;;4.48;97.08;100300.98;102967;1256;138575;-69
2024/03/14 06:22:58;;;;;;;46.80;35.40;;;;;;;4.53;96.71;100300.11;102983;1256;109482;-68
2024/03/14 06:25:23;;;;;;;49.70;35.70;;;;;;;4.58;96.70;100303.85;103073;1260;97712;-68
2024/03/14 06:27:49;;;;;;;52.20;34.50;;;;;;;4.62;96.67;100305.88;102936;1261;139674;-68
2024/03/14 06:30:13;;;;;;;49.10;35.50;;;;;;;4.65;96.30;100309.83;102908;1256;107666;-69
2024/03/14 06:32:44;;;;;;;47.60;35.30;;;;;;;4.69;95.98;100309.98;102882;1256;139737;-69
2024/03/14 06:35:09;;;;;;;47.70;36.10;;;;;;;4.72;95.98;100309.10;102954;1259;109358;-69
2024/03/14 06:37:33;;;;;;;45.50;35.10;;;;;;;4.78;96.27;100307.65;102930;1256;97784;-69
2024/03/14 06:39:57;;;;;;;48.80;35.70;;;;;;;4.89;96.17;100308.79;103147;1261;138397;-69
2024/03/14 06:42:23;;;;;;;48.20;35.30;;;;;;;4.98;95.83;100311.63;102916;1256;109517;-69
2024/03/14 06:44:47;;;;;;;51.50;35.60;;;;;;;5.05;95.57;100310.38;102817;1261;139309;-68
2024/03/14 06:47:12;;;;;;;47.80;36.10;;;;;;;5.12;95.38;100309.80;103666;1256;107926;-68
2024/03/14 06:49:38;;;;;;;51.00;35.70;;;;;;;5.18;94.99;100311.80;102541;1256;1003154;-69
2024/03/14 06:52:05;;;;;;;46.80;35.60;;;;;;;5.24;94.57;100313.32;103042;1256;139205;-71
2024/03/14 06:54:29;;;;;;;45.60;35.10;;;;;;;5.25;94.27;100311.25;103117;1256;108766;-70
2024/03/14 06:56:54;;;;;;;49.30;36.40;;;;;;;5.29;94.05;100309.98;102952;1256;138534;-69
2024/03/14 06:59:18;;;;;;;45.90;35.80;;;;;;;5.36;94.22;100309.56;103019;1257;106866;-69
2024/03/14 07:01:46;;;;;;;49.70;35.80;;;;;;;5.47;94.13;100310.33;102873;1256;97846;-69
2024/03/14 07:04:12;;;;;;;46.00;35.10;;;;;;;5.59;93.74;100320.20;103141;1256;110170;-68
2024/03/14 07:06:37;;;;;;;48.30;34.00;;;;;;;5.69;93.36;100321.80;103155;1256;108265;-68
2024/03/14 07:09:03;;;;;;;44.40;33.10;;;;;;;5.76;92.81;100323.63;103182;1254;138567;-68
2024/03/14 07:11:28;;;;;;;45.10;32.50;;;;;;;5.82;92.62;100326.33;104460;1254;107458;-69
2024/03/14 07:13:54;;;;;;;46.60;32.80;;;;;;;5.89;92.17;100326.25;103753;1253;138684;-68
2024/03/14 07:16:18;;;;;;;43.40;32.60;;;;;;;5.97;91.89;100325.85;103459;1260;110935;-69
2024/03/14 07:18:45;;;;;;;43.10;32.80;;;;;;;6.05;91.86;100326.92;103136;1255;107703;-68
2024/03/14 07:21:12;;;;;;;43.50;33.40;;;;;;;6.16;91.54;100323.87;103506;1260;138935;-69
2024/03/14 07:23:36;;;;;;;45.30;34.30;;;;;;;6.29;91.23;100328.19;103487;1260;108856;-69
2024/03/14 07:26:02;;;;;;;46.30;35.40;;;;;;;6.40;90.18;100330.63;103096;1260;139199;-68
2024/03/14 07:28:27;;;;;;;46.80;34.80;;;;;;;6.48;89.79;100329.48;103139;1256;111216;-68
2024/03/14 07:30:52;;;;;;;49.80;36.90;;;;;;;6.56;89.25;100325.04;103132;1260;107242;-70
2024/03/14 07:33:19;;;;;;;53.40;37.80;;;;;;;6.67;88.87;100324.38;102996;1260;138877;-70
2024/03/14 07:35:45;;;;;;;49.50;39.20;;;;;;;6.77;88.36;100325.06;103083;1254;108887;-70
2024/03/14 07:38:09;;;;;;;54.90;41.30;;;;;;;6.82;87.56;100330.53;103002;1254;138729;-69
2024/03/14 07:40:34;;;;;;;53.80;41.00;;;;;;;6.86;87.32;100328.23;103156;1260;112060;-69
2024/03/14 07:42:58;;;;;;;52.70;40.40;;;;;;;6.92;87.32;100325.35;102892;1255;106758;-68
2024/03/14 07:45:23;;;;;;;52.70;37.50;;;;;;;7.00;87.04;100327.66;102715;1259;138727;-69
2024/03/14 07:47:52;;;;;;;50.30;36.40;;;;;;;7.04;86.83;100325.70;103063;1262;108821;-68
2024/03/14 07:50:17;;;;;;;47.80;35.70;;;;;;;7.08;86.63;100328.20;103027;1254;139674;-68
2024/03/14 07:52:44;;;;;;;45.00;34.10;;;;;;;7.12;86.49;100327.79;103203;1260;110818;-69
2024/03/14 07:55:09;;;;;;;45.10;33.10;;;;;;;7.16;86.42;100324.27;103001;1256;108652;-65
2024/03/14 07:57:35;;;;;;;46.00;32.80;;;;;;;7.30;88.04;100324.90;103144;1257;138711;-66
2024/03/14 08:00:01;;;;;;;42.80;32.20;;;;;;;7.51;87.24;100334.55;103328;1255;106997;-66
2024/03/14 08:02:28;;;;;;;42.50;33.90;;;;;;;7.62;86.55;100336.26;103002;1255;138575;-65
2024/03/14 08:04:52;;;;;;;44.50;32.20;;;;;;;7.72;85.67;100339.69;103066;1262;111833;-65
2024/03/14 08:07:18;;;;;;;41.00;32.80;;;;;;;7.79;85.32;100339.73;103125;1260;107582;-65
2024/03/14 08:09:42;;;;;;;44.00;33.40;;;;;;;7.87;85.12;100339.91;103042;1260;139010;-65
2024/03/14 08:12:07;;;;;;;46.30;34.10;;;;;;;7.94;84.88;100344.83;103119;1262;108445;-66
2024/03/14 08:14:33;;;;;;;43.10;32.30;;;;;;;7.94;83.60;100346.91;103067;1257;139516;-65
2024/03/14 08:16:57;;;;;;;43.90;33.80;;;;;;;7.92;83.79;100352.13;103187;1256;111377;-65
2024/03/14 08:19:23;;;;;;;43.50;32.70;;;;;;;7.95;83.80;100353.81;103161;1255;105708;-65
2024/03/14 08:21:47;;;;;;;44.50;34.70;;;;;;;7.92;83.04;100351.44;103068;1260;139246;-65
2024/03/14 08:24:12;;;;;;;47.20;35.80;;;;;;;7.92;83.30;100348.48;103183;1260;107388;-64
2024/03/14 08:26:37;;;;;;;46.20;34.20;;;;;;;8.00;83.75;100348.15;103064;1257;138719;-65
2024/03/14 08:29:02;;;;;;;45.70;35.00;;;;;;;8.11;83.97;100355.04;103023;1256;110376;-65
2024/03/14 08:31:27;;;;;;;43.20;33.30;;;;;;;8.17;82.72;100356.97;103188;1260;107855;-65
2024/03/14 08:33:54;;;;;;;43.40;33.90;;;;;;;8.26;83.67;100353.17;103136;1254;138593;-65
2024/03/14 08:36:19;;;;;;;39.90;31.20;;;;;;;8.43;83.21;100352.66;103213;1260;108510;-65
2024/03/14 08:38:43;;;;;;;38.70;29.80;;;;;;;8.57;82.81;100359.79;103111;1262;140263;-65
2024/03/14 08:41:08;;;;;;;38.90;29.50;;;;;;;8.63;81.47;100361.42;103249;1259;113056;-65
2024/03/14 08:43:33;;;;;;;38.90;30.10;;;;;;;8.60;81.06;100360.60;103147;1254;107216;-65
2024/03/14 08:45:57;;;;;;;36.60;28.70;;;;;;;8.63;80.25;100364.52;103138;1260;138589;-65
2024/03/14 08:48:22;;;;;;;39.70;30.80;;;;;;;8.60;79.59;100368.73;103141;1257;108193;-65
2024/03/14 08:50:47;;;;;;;41.30;31.90;;;;;;;8.53;79.93;100370.11;103041;1254;139041;-64
2024/03/14 08:53:12;;;;;;;36.60;28.30;;;;;;;8.56;79.92;100365.89;103079;1254;110568;-65
2024/03/14 08:55:45;;;;;;;44.90;32.70;;;;;;;8.58;79.89;100370.86;103144;1259;107230;-66
2024/03/14 08:58:10;;;;;;;39.60;30.70;;;;;;;8.60;79.90;100367.35;103273;1257;97796;-65
2024/03/14 09:00:37;;;;;;;38.00;30.00;;;;;;;8.63;80.11;100369.05;103123;1260;108095;-64
2024/03/14 09:03:01;;;;;;;42.40;31.10;;;;;;;8.67;80.32;100367.73;102976;1259;139985;-64
2024/03/14 09:05:26;;;;;;;40.40;30.90;;;;;;;8.70;79.45;100372.50;103059;1257;110832;-65
2024/03/14 09:07:50;;;;;;;39.70;31.20;;;;;;;8.67;79.57;100371.89;102892;1258;140120;-65
2024/03/14 09:10:23;;;;;;;38.00;30.90;;;;;;;8.64;79.75;100366.94;103087;1254;97947;-64
2024/03/14 09:12:48;;;;;;;41.10;30.90;;;;;;;8.64;79.48;100374.21;103051;1258;106519;-63
2024/03/14 09:15:13;;;;;;;39.70;30.00;;;;;;;8.61;78.80;100372.89;102784;1254;140021;-63
2024/03/14 09:17:37;;;;;;;40.50;30.90;;;;;;;8.57;78.91;100366.39;103043;1254;112587;-64
2024/03/14 09:20:06;;;;;;;40.50;30.90;;;;;;;8.56;78.90;100366.39;102992;1260;138880;-65
2024/03/14 09:22:31;;;;;;;40.90;30.70;;;;;;;8.60;79.07;100364.08;103466;1262;100175;-65
2024/03/14 09:24:57;;;;;;;37.30;29.50;;;;;;;8.71;79.16;100359.14;103170;1262;107309;-65
2024/03/14 09:27:21;;;;;;;41.60;29.20;;;;;;;8.83;78.71;100357.48;102887;1264;138843;-65
2024/03/14 09:29:46;;;;;;;38.10;28.20;;;;;;;8.96;79.05;100354.38;103197;1255;112435;-66
2024/03/14 09:32:10;;;;;;;36.60;28.90;;;;;;;9.15;78.80;100358.80;102997;1260;139795;-65
2024/03/14 09:34:38;;;;;;;36.20;28.60;;;;;;;9.23;77.25;100358.42;103155;1260;97809;-65
2024/03/14 09:37:02;;;;;;;35.90;28.50;;;;;;;9.33;77.79;100356.27;103110;1260;108003;-65
2024/03/14 09:39:35;;;;;;;39.70;30.10;;;;;;;9.47;77.39;100354.35;102927;1260;139936;-66
2024/03/14 09:42:00;;;;;;;36.80;29.60;;;;;;;9.56;76.77;100355.50;103194;1259;110408;-66
2024/03/14 09:44:24;;;;;;;41.80;29.10;;;;;;;9.62;77.09;100349.08;104277;1260;139286;-66
2024/03/14 09:46:49;;;;;;;36.30;28.30;;;;;;;9.75;77.14;100348.03;104460;1254;95980;-65
2024/03/14 09:49:13;;;;;;;38.50;27.70;;;;;;;9.91;76.45;100346.03;103498;1260;106853;-64
2024/03/14 09:51:37;;;;;;;38.50;26.70;;;;;;;10.15;75.21;100347.42;103161;1254;138851;-65
2024/03/14 09:54:02;;;;;;;32.00;24.80;;;;;;;10.29;74.20;100352.11;103073;1263;111729;-64
2024/03/14 09:56:26;;;;;;;35.00;26.20;;;;;;;10.45;74.49;100347.13;102979;1260;139152;-65
2024/03/14 09:58:51;;;;;;;32.90;25.30;;;;;;;10.65;73.20;100339.55;103401;1260;97867;-65
2024/03/14 10:01:17;;;;;;;33.30;25.90;;;;;;;10.92;73.19;100335.04;103206;1260;107033;-64
2024/03/14 10:03:41;;;;;;;32.90;25.00;;;;;;;11.33;71.48;100335.05;102829;1254;138859;-64
2024/03/14 10:06:15;;;;;;;34.30;25.70;;;;;;;11.63;71.75;100331.62;103010;1255;111504;-64
2024/03/14 10:08:45;;;;;;;35.30;25.50;;;;;;;12.03;70.85;100329.66;103371;1254;138307;-65
2024/03/14 10:11:13;;;;;;;30.00;25.20;;;;;;;12.48;69.22;100333.72;103139;1254;98234;-65
2024/03/14 10:13:38;;;;;;;31.20;23.30;;;;;;;12.72;68.29;100325.09;102989;1260;107672;-65
2024/03/14 10:16:03;;;;;;;28.20;22.60;;;;;;;13.07;68.01;100324.39;103071;1259;138030;-65
2024/03/14 10:18:27;;;;;;;31.00;24.10;;;;;;;13.63;66.02;100321.70;103065;1257;110112;-66
2024/03/14 10:20:53;;;;;;;27.90;22.60;;;;;;;13.93;63.75;100319.83;103020;1258;138311;-64
2024/03/14 10:23:18;;;;;;;28.10;22.40;;;;;;;14.27;64.51;100315.29;103078;1254;98129;-64
2024/03/14 10:25:50;;;;;;;29.30;23.20;;;;;;;14.74;64.02;100305.94;103047;1258;108308;-64
2024/03/14 10:28:17;;;;;;;27.00;22.50;;;;;;;15.13;61.96;100294.54;103213;1260;98187;-64
2024/03/14 10:30:49;;;;;;;26.90;22.20;;;;;;;15.50;62.15;100294.80;103200;1255;113131;-64
2024/03/14 10:33:13;;;;;;;26.70;21.80;;;;;;;15.67;59.76;100285.83;103410;1257;138436;-64
2024/03/14 10:35:40;;;;;;;25.80;21.60;;;;;;;15.65;59.90;100289.11;103096;1260;97845;-64
2024/03/14 10:38:07;;;;;;;24.60;21.80;;;;;;;15.77;58.20;100292.69;103129;1260;138827;-65
2024/03/14 10:40:31;;;;;;;27.70;22.50;;;;;;;15.88;58.90;100286.14;103191;1260;97840;-65
2024/03/14 10:42:55;;;;;;;26.30;21.60;;;;;;;15.80;58.27;100284.10;103151;1260;110886;-65
2024/03/14 10:45:20;;;;;;;25.50;22.20;;;;;;;15.75;58.03;100284.55;102951;1261;139032;-65
2024/03/14 10:47:44;;;;;;;26.50;22.40;;;;;;;15.71;57.93;100281.10;103039;1254;97806;-63
2024/03/14 10:50:12;;;;;;;27.80;23.80;;;;;;;15.64;57.46;100276.56;103079;1260;138169;-64
2024/03/14 10:52:39;;;;;;;28.50;23.00;;;;;;;15.63;56.70;100275.36;103135;1257;97790;-64
2024/03/14 10:55:03;;;;;;;30.10;23.20;;;;;;;15.46;56.98;100276.58;103016;1259;111110;-64
2024/03/14 10:57:28;;;;;;;28.10;22.60;;;;;;;15.37;55.64;100281.43;103037;1260;138312;-64